sensor_id;sensor_type;location;lat;lon;timestamp;P1;durP1;ratioP1;P2;durP2;ratioP2
14076;SDS011;7114;51.100;13.998;2022-07-03T00:01:27;8.13;;;3.80;;
14076;SDS011;7114;51.100;13.998;2022-07-03T00:03:55;7.32;;;3.67;;
14076;SDS011;7114;51.100;13.998;2022-07-03T00:06:21;9.38;;;4.00;;
14076;SDS011;7114;51.100;13.998;2022-07-03T00:08:48;7.80;;;3.83;;
14076;SDS011;7114;51.100;13.998;2022-07-03T00:11:14;8.75;;;4.20;;
14076;SDS011;7114;51.100;13.998;2022-07-03T00:13:41;8.80;;;3.95;;
14076;SDS011;7114;51.100;13.998;2022-07-03T00:16:08;9.23;;;4.13;;
14076;SDS011;7114;51.100;13.998;2022-07-03T00:18:34;8.73;;;4.32;;
14076;SDS011;7114;51.100;13.998;2022-07-03T00:21:02;8.87;;;4.30;;
14076;SDS011;7114;51.100;13.998;2022-07-03T00:23:30;9.55;;;4.47;;
14076;SDS011;7114;51.100;13.998;2022-07-03T00:26:00;8.15;;;4.40;;
14076;SDS011;7114;51.100;13.998;2022-07-03T00:28:27;8.02;;;4.30;;
14076;SDS011;7114;51.100;13.998;2022-07-03T00:30:54;9.52;;;4.28;;
14076;SDS011;7114;51.100;13.998;2022-07-03T00:33:21;9.30;;;4.47;;
14076;SDS011;7114;51.100;13.998;2022-07-03T00:35:48;9.20;;;4.68;;
14076;SDS011;7114;51.100;13.998;2022-07-03T00:38:17;9.25;;;4.40;;
14076;SDS011;7114;51.100;13.998;2022-07-03T00:40:44;9.18;;;4.32;;
14076;SDS011;7114;51.100;13.998;2022-07-03T00:43:10;8.48;;;4.38;;
14076;SDS011;7114;51.100;13.998;2022-07-03T00:45:38;9.80;;;4.13;;
14076;SDS011;7114;51.100;13.998;2022-07-03T00:48:11;11.10;;;4.00;;
14076;SDS011;7114;51.100;13.998;2022-07-03T00:50:39;10.32;;;4.68;;
14076;SDS011;7114;51.100;13.998;2022-07-03T00:53:10;9.50;;;4.25;;
14076;SDS011;7114;51.100;13.998;2022-07-03T00:55:40;10.60;;;4.55;;
14076;SDS011;7114;51.100;13.998;2022-07-03T00:58:07;8.57;;;4.37;;
14076;SDS011;7114;51.100;13.998;2022-07-03T01:00:33;8.68;;;4.40;;
14076;SDS011;7114;51.100;13.998;2022-07-03T01:03:02;9.80;;;4.65;;
14076;SDS011;7114;51.100;13.998;2022-07-03T01:05:32;8.85;;;4.80;;
14076;SDS011;7114;51.100;13.998;2022-07-03T01:08:04;9.27;;;4.57;;
14076;SDS011;7114;51.100;13.998;2022-07-03T01:10:37;9.47;;;4.60;;
14076;SDS011;7114;51.100;13.998;2022-07-03T01:13:13;9.45;;;4.45;;
14076;SDS011;7114;51.100;13.998;2022-07-03T01:15:41;10.05;;;4.45;;
14076;SDS011;7114;51.100;13.998;2022-07-03T01:18:23;10.20;;;4.88;;
14076;SDS011;7114;51.100;13.998;2022-07-03T01:20:57;9.43;;;4.32;;
14076;SDS011;7114;51.100;13.998;2022-07-03T01:23:29;8.40;;;4.07;;
14076;SDS011;7114;51.100;13.998;2022-07-03T01:25:58;7.63;;;4.18;;
14076;SDS011;7114;51.100;13.998;2022-07-03T01:28:29;9.07;;;4.07;;
14076;SDS011;7114;51.100;13.998;2022-07-03T01:30:55;8.10;;;4.20;;
14076;SDS011;7114;51.100;13.998;2022-07-03T01:33:23;7.90;;;3.90;;
14076;SDS011;7114;51.100;13.998;2022-07-03T01:35:54;8.50;;;4.10;;
14076;SDS011;7114;51.100;13.998;2022-07-03T01:38:26;7.93;;;3.92;;
14076;SDS011;7114;51.100;13.998;2022-07-03T01:40:53;8.65;;;4.38;;
14076;SDS011;7114;51.100;13.998;2022-07-03T01:43:23;8.27;;;4.35;;
14076;SDS011;7114;51.100;13.998;2022-07-03T01:45:51;8.48;;;4.45;;
14076;SDS011;7114;51.100;13.998;2022-07-03T01:48:19;8.87;;;4.70;;
14076;SDS011;7114;51.100;13.998;2022-07-03T01:50:47;8.77;;;4.40;;
14076;SDS011;7114;51.100;13.998;2022-07-03T01:53:15;8.50;;;4.28;;
14076;SDS011;7114;51.100;13.998;2022-07-03T01:55:43;7.80;;;3.67;;
14076;SDS011;7114;51.100;13.998;2022-07-03T01:58:10;7.88;;;4.35;;
14076;SDS011;7114;51.100;13.998;2022-07-03T02:00:41;8.63;;;4.00;;
14076;SDS011;7114;51.100;13.998;2022-07-03T02:03:08;8.60;;;3.80;;
14076;SDS011;7114;51.100;13.998;2022-07-03T02:05:37;7.53;;;3.90;;
14076;SDS011;7114;51.100;13.998;2022-07-03T02:08:12;9.48;;;4.07;;
14076;SDS011;7114;51.100;13.998;2022-07-03T02:10:46;8.02;;;4.00;;
14076;SDS011;7114;51.100;13.998;2022-07-03T02:13:16;9.27;;;3.90;;
14076;SDS011;7114;51.100;13.998;2022-07-03T02:15:48;7.72;;;3.80;;
14076;SDS011;7114;51.100;13.998;2022-07-03T02:18:22;7.82;;;4.10;;
14076;SDS011;7114;51.100;13.998;2022-07-03T02:20:54;8.90;;;4.22;;
14076;SDS011;7114;51.100;13.998;2022-07-03T02:23:25;8.57;;;4.20;;
14076;SDS011;7114;51.100;13.998;2022-07-03T02:25:53;11.23;;;4.30;;
14076;SDS011;7114;51.100;13.998;2022-07-03T02:28:22;7.72;;;4.18;;
14076;SDS011;7114;51.100;13.998;2022-07-03T02:30:57;7.95;;;4.13;;
14076;SDS011;7114;51.100;13.998;2022-07-03T02:33:26;8.15;;;4.25;;
14076;SDS011;7114;51.100;13.998;2022-07-03T02:35:55;8.10;;;4.32;;
14076;SDS011;7114;51.100;13.998;2022-07-03T02:38:23;9.23;;;4.60;;
14076;SDS011;7114;51.100;13.998;2022-07-03T02:40:55;8.10;;;4.30;;
14076;SDS011;7114;51.100;13.998;2022-07-03T02:43:26;9.02;;;4.45;;
14076;SDS011;7114;51.100;13.998;2022-07-03T02:46:02;9.65;;;4.53;;
14076;SDS011;7114;51.100;13.998;2022-07-03T02:48:54;8.63;;;3.97;;
14076;SDS011;7114;51.100;13.998;2022-07-03T02:51:23;8.27;;;4.13;;
14076;SDS011;7114;51.100;13.998;2022-07-03T02:53:59;9.38;;;4.38;;
14076;SDS011;7114;51.100;13.998;2022-07-03T02:56:27;9.88;;;4.50;;
14076;SDS011;7114;51.100;13.998;2022-07-03T02:58:58;9.38;;;4.40;;
14076;SDS011;7114;51.100;13.998;2022-07-03T03:01:34;8.30;;;3.88;;
14076;SDS011;7114;51.100;13.998;2022-07-03T03:04:08;8.80;;;4.00;;
14076;SDS011;7114;51.100;13.998;2022-07-03T03:06:36;9.48;;;4.60;;
14076;SDS011;7114;51.100;13.998;2022-07-03T03:09:03;8.13;;;4.30;;
14076;SDS011;7114;51.100;13.998;2022-07-03T03:11:32;7.45;;;4.07;;
14076;SDS011;7114;51.100;13.998;2022-07-03T03:14:00;9.02;;;4.57;;
14076;SDS011;7114;51.100;13.998;2022-07-03T03:16:26;10.03;;;4.60;;
14076;SDS011;7114;51.100;13.998;2022-07-03T03:18:54;8.27;;;4.40;;
14076;SDS011;7114;51.100;13.998;2022-07-03T03:21:21;8.57;;;4.30;;
14076;SDS011;7114;51.100;13.998;2022-07-03T03:23:49;8.80;;;4.65;;
14076;SDS011;7114;51.100;13.998;2022-07-03T03:26:18;8.65;;;4.18;;
14076;SDS011;7114;51.100;13.998;2022-07-03T03:28:45;9.33;;;4.60;;
14076;SDS011;7114;51.100;13.998;2022-07-03T03:31:12;9.23;;;4.60;;
14076;SDS011;7114;51.100;13.998;2022-07-03T03:33:39;8.95;;;4.70;;
14076;SDS011;7114;51.100;13.998;2022-07-03T03:36:08;8.75;;;4.00;;
14076;SDS011;7114;51.100;13.998;2022-07-03T03:38:36;8.35;;;4.45;;
14076;SDS011;7114;51.100;13.998;2022-07-03T03:41:03;8.33;;;4.23;;
14076;SDS011;7114;51.100;13.998;2022-07-03T03:43:29;9.95;;;4.47;;
14076;SDS011;7114;51.100;13.998;2022-07-03T03:45:56;9.52;;;4.03;;
14076;SDS011;7114;51.100;13.998;2022-07-03T03:48:22;8.88;;;4.40;;
14076;SDS011;7114;51.100;13.998;2022-07-03T03:50:48;9.02;;;4.18;;
14076;SDS011;7114;51.100;13.998;2022-07-03T03:53:16;8.47;;;4.00;;
14076;SDS011;7114;51.100;13.998;2022-07-03T03:55:53;7.93;;;3.95;;
14076;SDS011;7114;51.100;13.998;2022-07-03T03:58:20;8.45;;;4.00;;
14076;SDS011;7114;51.100;13.998;2022-07-03T04:00:47;7.90;;;3.80;;
14076;SDS011;7114;51.100;13.998;2022-07-03T04:03:13;8.20;;;4.10;;
14076;SDS011;7114;51.100;13.998;2022-07-03T04:05:39;7.90;;;3.70;;
14076;SDS011;7114;51.100;13.998;2022-07-03T04:08:06;10.05;;;4.07;;
14076;SDS011;7114;51.100;13.998;2022-07-03T04:10:34;7.70;;;3.65;;
14076;SDS011;7114;51.100;13.998;2022-07-03T04:13:01;7.50;;;3.67;;
14076;SDS011;7114;51.100;13.998;2022-07-03T04:15:27;9.95;;;4.47;;
14076;SDS011;7114;51.100;13.998;2022-07-03T04:17:53;8.27;;;4.03;;
14076;SDS011;7114;51.100;13.998;2022-07-03T04:20:20;7.82;;;4.07;;
14076;SDS011;7114;51.100;13.998;2022-07-03T04:22:46;8.40;;;4.28;;
14076;SDS011;7114;51.100;13.998;2022-07-03T04:25:15;7.80;;;4.00;;
14076;SDS011;7114;51.100;13.998;2022-07-03T04:27:43;8.00;;;4.30;;
14076;SDS011;7114;51.100;13.998;2022-07-03T04:30:09;10.00;;;4.20;;
14076;SDS011;7114;51.100;13.998;2022-07-03T04:32:37;8.02;;;4.40;;
14076;SDS011;7114;51.100;13.998;2022-07-03T04:35:04;8.10;;;3.95;;
14076;SDS011;7114;51.100;13.998;2022-07-03T04:37:31;7.60;;;3.90;;
14076;SDS011;7114;51.100;13.998;2022-07-03T04:39:57;8.20;;;4.00;;
14076;SDS011;7114;51.100;13.998;2022-07-03T04:42:23;9.57;;;4.00;;
14076;SDS011;7114;51.100;13.998;2022-07-03T04:44:51;8.82;;;4.20;;
14076;SDS011;7114;51.100;13.998;2022-07-03T04:47:17;8.55;;;3.63;;
14076;SDS011;7114;51.100;13.998;2022-07-03T04:49:44;8.48;;;4.00;;
14076;SDS011;7114;51.100;13.998;2022-07-03T04:52:10;8.13;;;3.88;;
14076;SDS011;7114;51.100;13.998;2022-07-03T04:54:37;7.07;;;3.70;;
14076;SDS011;7114;51.100;13.998;2022-07-03T04:57:03;8.70;;;3.90;;
14076;SDS011;7114;51.100;13.998;2022-07-03T04:59:30;9.48;;;3.80;;
14076;SDS011;7114;51.100;13.998;2022-07-03T05:01:58;8.40;;;3.53;;
14076;SDS011;7114;51.100;13.998;2022-07-03T05:04:24;7.50;;;3.88;;
14076;SDS011;7114;51.100;13.998;2022-07-03T05:06:50;7.80;;;3.87;;
14076;SDS011;7114;51.100;13.998;2022-07-03T05:09:17;8.77;;;3.85;;
14076;SDS011;7114;51.100;13.998;2022-07-03T05:11:43;7.57;;;3.42;;
14076;SDS011;7114;51.100;13.998;2022-07-03T05:14:10;7.75;;;3.47;;
14076;SDS011;7114;51.100;13.998;2022-07-03T05:16:36;7.20;;;3.60;;
14076;SDS011;7114;51.100;13.998;2022-07-03T05:19:04;8.30;;;3.63;;
14076;SDS011;7114;51.100;13.998;2022-07-03T05:21:30;7.85;;;3.55;;
14076;SDS011;7114;51.100;13.998;2022-07-03T05:23:57;6.40;;;3.38;;
14076;SDS011;7114;51.100;13.998;2022-07-03T05:26:23;7.78;;;3.40;;
14076;SDS011;7114;51.100;13.998;2022-07-03T05:28:50;8.77;;;3.70;;
14076;SDS011;7114;51.100;13.998;2022-07-03T05:31:16;7.97;;;3.50;;
14076;SDS011;7114;51.100;13.998;2022-07-03T05:33:43;6.90;;;3.03;;
14076;SDS011;7114;51.100;13.998;2022-07-03T05:36:11;7.10;;;3.13;;
14076;SDS011;7114;51.100;13.998;2022-07-03T05:38:37;6.75;;;2.60;;
14076;SDS011;7114;51.100;13.998;2022-07-03T05:41:21;7.18;;;3.08;;
14076;SDS011;7114;51.100;13.998;2022-07-03T05:43:47;6.10;;;2.60;;
14076;SDS011;7114;51.100;13.998;2022-07-03T05:46:14;7.33;;;2.60;;
14076;SDS011;7114;51.100;13.998;2022-07-03T05:48:40;7.50;;;2.70;;
14076;SDS011;7114;51.100;13.998;2022-07-03T05:51:06;6.38;;;2.50;;
14076;SDS011;7114;51.100;13.998;2022-07-03T05:53:34;6.85;;;2.50;;
14076;SDS011;7114;51.100;13.998;2022-07-03T05:56:00;5.80;;;2.60;;
14076;SDS011;7114;51.100;13.998;2022-07-03T05:58:27;5.60;;;2.40;;
14076;SDS011;7114;51.100;13.998;2022-07-03T06:00:53;6.17;;;2.40;;
14076;SDS011;7114;51.100;13.998;2022-07-03T06:03:19;5.35;;;2.30;;
14076;SDS011;7114;51.100;13.998;2022-07-03T06:05:46;6.82;;;2.80;;
14076;SDS011;7114;51.100;13.998;2022-07-03T06:08:12;6.68;;;2.58;;
14076;SDS011;7114;51.100;13.998;2022-07-03T06:10:40;6.00;;;2.40;;
14076;SDS011;7114;51.100;13.998;2022-07-03T06:13:06;5.15;;;2.38;;
14076;SDS011;7114;51.100;13.998;2022-07-03T06:15:33;5.68;;;2.47;;
14076;SDS011;7114;51.100;13.998;2022-07-03T06:17:59;6.47;;;2.50;;
14076;SDS011;7114;51.100;13.998;2022-07-03T06:20:26;8.77;;;2.47;;
14076;SDS011;7114;51.100;13.998;2022-07-03T06:22:52;6.25;;;2.83;;
14076;SDS011;7114;51.100;13.998;2022-07-03T06:25:18;6.07;;;2.78;;
14076;SDS011;7114;51.100;13.998;2022-07-03T06:27:46;5.45;;;2.67;;
14076;SDS011;7114;51.100;13.998;2022-07-03T06:30:12;5.82;;;2.78;;
14076;SDS011;7114;51.100;13.998;2022-07-03T06:32:39;7.25;;;2.75;;
14076;SDS011;7114;51.100;13.998;2022-07-03T06:35:05;6.18;;;2.83;;
14076;SDS011;7114;51.100;13.998;2022-07-03T06:37:32;5.90;;;2.70;;
14076;SDS011;7114;51.100;13.998;2022-07-03T06:39:59;6.40;;;2.70;;
14076;SDS011;7114;51.100;13.998;2022-07-03T06:42:25;5.33;;;2.83;;
14076;SDS011;7114;51.100;13.998;2022-07-03T06:44:52;5.40;;;2.83;;
14076;SDS011;7114;51.100;13.998;2022-07-03T06:47:19;6.90;;;2.83;;
14076;SDS011;7114;51.100;13.998;2022-07-03T06:49:45;6.07;;;3.00;;
14076;SDS011;7114;51.100;13.998;2022-07-03T06:52:12;7.60;;;3.10;;
14076;SDS011;7114;51.100;13.998;2022-07-03T06:54:38;6.32;;;2.95;;
14076;SDS011;7114;51.100;13.998;2022-07-03T06:57:08;5.80;;;2.90;;
14076;SDS011;7114;51.100;13.998;2022-07-03T06:59:34;5.63;;;3.00;;
14076;SDS011;7114;51.100;13.998;2022-07-03T07:02:02;5.55;;;3.00;;
14076;SDS011;7114;51.100;13.998;2022-07-03T07:04:29;5.80;;;3.20;;
14076;SDS011;7114;51.100;13.998;2022-07-03T07:06:55;5.37;;;3.00;;
14076;SDS011;7114;51.100;13.998;2022-07-03T07:09:21;5.67;;;3.40;;
14076;SDS011;7114;51.100;13.998;2022-07-03T07:11:48;5.95;;;3.58;;
14076;SDS011;7114;51.100;13.998;2022-07-03T07:14:14;6.20;;;3.10;;
14076;SDS011;7114;51.100;13.998;2022-07-03T07:16:40;5.97;;;3.20;;
14076;SDS011;7114;51.100;13.998;2022-07-03T07:19:08;5.28;;;3.45;;
14076;SDS011;7114;51.100;13.998;2022-07-03T07:21:34;6.22;;;3.60;;
14076;SDS011;7114;51.100;13.998;2022-07-03T07:24:01;6.22;;;3.92;;
14076;SDS011;7114;51.100;13.998;2022-07-03T07:26:27;5.45;;;3.33;;
14076;SDS011;7114;51.100;13.998;2022-07-03T07:28:53;5.33;;;3.50;;
14076;SDS011;7114;51.100;13.998;2022-07-03T07:31:19;5.40;;;3.30;;
14076;SDS011;7114;51.100;13.998;2022-07-03T07:33:46;6.65;;;3.80;;
14076;SDS011;7114;51.100;13.998;2022-07-03T07:36:13;5.80;;;4.20;;
14076;SDS011;7114;51.100;13.998;2022-07-03T07:38:40;6.10;;;4.40;;
14076;SDS011;7114;51.100;13.998;2022-07-03T07:41:06;6.05;;;3.70;;
14076;SDS011;7114;51.100;13.998;2022-07-03T07:43:32;5.95;;;3.65;;
14076;SDS011;7114;51.100;13.998;2022-07-03T07:45:59;5.72;;;4.50;;
14076;SDS011;7114;51.100;13.998;2022-07-03T07:48:25;6.60;;;4.45;;
14076;SDS011;7114;51.100;13.998;2022-07-03T07:50:51;5.50;;;4.10;;
14076;SDS011;7114;51.100;13.998;2022-07-03T07:53:19;5.60;;;4.40;;
14076;SDS011;7114;51.100;13.998;2022-07-03T07:55:45;5.47;;;4.38;;
14076;SDS011;7114;51.100;13.998;2022-07-03T07:58:11;5.63;;;4.50;;
14076;SDS011;7114;51.100;13.998;2022-07-03T08:00:38;6.18;;;4.80;;
14076;SDS011;7114;51.100;13.998;2022-07-03T08:03:24;6.15;;;5.03;;
14076;SDS011;7114;51.100;13.998;2022-07-03T08:06:07;5.60;;;4.77;;
14076;SDS011;7114;51.100;13.998;2022-07-03T08:08:35;6.85;;;4.72;;
14076;SDS011;7114;51.100;13.998;2022-07-03T08:11:01;5.95;;;5.32;;
14076;SDS011;7114;51.100;13.998;2022-07-03T08:13:27;6.35;;;5.05;;
14076;SDS011;7114;51.100;13.998;2022-07-03T08:15:54;6.43;;;5.22;;
14076;SDS011;7114;51.100;13.998;2022-07-03T08:18:20;6.03;;;5.30;;
14076;SDS011;7114;51.100;13.998;2022-07-03T08:20:46;5.90;;;5.00;;
14076;SDS011;7114;51.100;13.998;2022-07-03T08:23:13;8.82;;;5.70;;
14076;SDS011;7114;51.100;13.998;2022-07-03T08:25:41;7.38;;;5.90;;
14076;SDS011;7114;51.100;13.998;2022-07-03T08:28:07;6.03;;;5.25;;
14076;SDS011;7114;51.100;13.998;2022-07-03T08:30:34;6.57;;;5.95;;
14076;SDS011;7114;51.100;13.998;2022-07-03T08:33:00;6.50;;;5.57;;
14076;SDS011;7114;51.100;13.998;2022-07-03T08:35:27;7.30;;;6.37;;
14076;SDS011;7114;51.100;13.998;2022-07-03T08:37:54;7.43;;;6.72;;
14076;SDS011;7114;51.100;13.998;2022-07-03T08:40:21;7.43;;;6.72;;
14076;SDS011;7114;51.100;13.998;2022-07-03T08:42:50;7.13;;;6.35;;
14076;SDS011;7114;51.100;13.998;2022-07-03T08:45:19;7.15;;;6.45;;
14076;SDS011;7114;51.100;13.998;2022-07-03T08:47:46;7.33;;;6.63;;
14076;SDS011;7114;51.100;13.998;2022-07-03T08:50:14;8.32;;;7.63;;
14076;SDS011;7114;51.100;13.998;2022-07-03T08:52:42;7.28;;;6.57;;
14076;SDS011;7114;51.100;13.998;2022-07-03T08:55:09;8.13;;;7.32;;
14076;SDS011;7114;51.100;13.998;2022-07-03T08:57:37;7.85;;;7.15;;
14076;SDS011;7114;51.100;13.998;2022-07-03T09:00:08;8.07;;;7.37;;
14076;SDS011;7114;51.100;13.998;2022-07-03T09:02:36;9.10;;;8.30;;
14076;SDS011;7114;51.100;13.998;2022-07-03T09:05:06;8.90;;;8.20;;
14076;SDS011;7114;51.100;13.998;2022-07-03T09:07:34;8.73;;;7.90;;
14076;SDS011;7114;51.100;13.998;2022-07-03T09:10:01;8.55;;;7.75;;
14076;SDS011;7114;51.100;13.998;2022-07-03T09:12:29;8.20;;;7.50;;
14076;SDS011;7114;51.100;13.998;2022-07-03T09:14:56;8.20;;;7.50;;
14076;SDS011;7114;51.100;13.998;2022-07-03T09:17:23;8.82;;;8.02;;
14076;SDS011;7114;51.100;13.998;2022-07-03T09:19:50;8.90;;;8.10;;
14076;SDS011;7114;51.100;13.998;2022-07-03T09:22:18;8.75;;;8.05;;
14076;SDS011;7114;51.100;13.998;2022-07-03T09:24:46;10.00;;;9.10;;
14076;SDS011;7114;51.100;13.998;2022-07-03T09:27:15;9.15;;;8.35;;
14076;SDS011;7114;51.100;13.998;2022-07-03T09:29:45;10.32;;;9.27;;
14076;SDS011;7114;51.100;13.998;2022-07-03T09:32:16;9.23;;;8.40;;
14076;SDS011;7114;51.100;13.998;2022-07-03T09:34:44;11.05;;;10.15;;
14076;SDS011;7114;51.100;13.998;2022-07-03T09:37:10;11.27;;;10.37;;
14076;SDS011;7114;51.100;13.998;2022-07-03T09:39:37;11.40;;;10.50;;
14076;SDS011;7114;51.100;13.998;2022-07-03T09:42:05;11.88;;;10.98;;
14076;SDS011;7114;51.100;13.998;2022-07-03T09:44:35;11.38;;;10.38;;
14076;SDS011;7114;51.100;13.998;2022-07-03T09:47:09;10.27;;;9.48;;
14076;SDS011;7114;51.100;13.998;2022-07-03T09:49:51;9.23;;;8.33;;
14076;SDS011;7114;51.100;13.998;2022-07-03T09:52:26;10.52;;;9.65;;
14076;SDS011;7114;51.100;13.998;2022-07-03T09:54:57;10.00;;;9.10;;
14076;SDS011;7114;51.100;13.998;2022-07-03T09:57:24;10.05;;;9.25;;
14076;SDS011;7114;51.100;13.998;2022-07-03T10:00:07;10.35;;;9.55;;
14076;SDS011;7114;51.100;13.998;2022-07-03T10:02:35;10.10;;;9.20;;
14076;SDS011;7114;51.100;13.998;2022-07-03T10:05:11;10.55;;;9.75;;
14076;SDS011;7114;51.100;13.998;2022-07-03T10:07:48;11.40;;;10.60;;
14076;SDS011;7114;51.100;13.998;2022-07-03T10:10:15;10.60;;;9.70;;
14076;SDS011;7114;51.100;13.998;2022-07-03T10:12:42;12.13;;;11.13;;
14076;SDS011;7114;51.100;13.998;2022-07-03T10:15:09;11.07;;;10.17;;
14076;SDS011;7114;51.100;13.998;2022-07-03T10:17:37;11.70;;;10.80;;
14076;SDS011;7114;51.100;13.998;2022-07-03T10:20:03;13.10;;;12.20;;
14076;SDS011;7114;51.100;13.998;2022-07-03T10:22:31;14.20;;;13.20;;
14076;SDS011;7114;51.100;13.998;2022-07-03T10:25:00;13.07;;;12.18;;
14076;SDS011;7114;51.100;13.998;2022-07-03T10:27:27;14.20;;;13.20;;
14076;SDS011;7114;51.100;13.998;2022-07-03T10:29:55;14.13;;;13.13;;
14076;SDS011;7114;51.100;13.998;2022-07-03T10:32:22;16.20;;;15.20;;
14076;SDS011;7114;51.100;13.998;2022-07-03T10:34:48;16.30;;;15.20;;
14076;SDS011;7114;51.100;13.998;2022-07-03T10:37:15;15.68;;;14.57;;
14076;SDS011;7114;51.100;13.998;2022-07-03T10:39:46;15.33;;;14.33;;
14076;SDS011;7114;51.100;13.998;2022-07-03T10:42:16;16.30;;;15.20;;
14076;SDS011;7114;51.100;13.998;2022-07-03T10:45:04;16.02;;;15.02;;
14076;SDS011;7114;51.100;13.998;2022-07-03T10:47:37;17.45;;;16.25;;
14076;SDS011;7114;51.100;13.998;2022-07-03T10:50:07;17.48;;;16.38;;
14076;SDS011;7114;51.100;13.998;2022-07-03T10:52:34;17.17;;;16.07;;
14076;SDS011;7114;51.100;13.998;2022-07-03T10:55:01;17.20;;;16.10;;
14076;SDS011;7114;51.100;13.998;2022-07-03T10:57:31;16.20;;;15.20;;
14076;SDS011;7114;51.100;13.998;2022-07-03T10:59:58;17.45;;;16.35;;
14076;SDS011;7114;51.100;13.998;2022-07-03T11:02:33;17.23;;;16.13;;
14076;SDS011;7114;51.100;13.998;2022-07-03T11:05:07;18.50;;;17.30;;
14076;SDS011;7114;51.100;13.998;2022-07-03T11:07:35;18.23;;;17.13;;
14076;SDS011;7114;51.100;13.998;2022-07-03T11:13:08;17.92;;;16.83;;
14076;SDS011;7114;51.100;13.998;2022-07-03T11:15:38;18.40;;;17.20;;
14076;SDS011;7114;51.100;13.998;2022-07-03T11:18:09;18.67;;;17.53;;
14076;SDS011;7114;51.100;13.998;2022-07-03T11:20:46;19.58;;;18.33;;
14076;SDS011;7114;51.100;13.998;2022-07-03T11:27:21;16.92;;;15.73;;
14076;SDS011;7114;51.100;13.998;2022-07-03T11:29:57;15.98;;;14.77;;
14076;SDS011;7114;51.100;13.998;2022-07-03T11:32:43;17.20;;;16.00;;
14076;SDS011;7114;51.100;13.998;2022-07-03T11:38:16;14.68;;;13.68;;
14076;SDS011;7114;51.100;13.998;2022-07-03T11:40:43;12.52;;;11.63;;
14076;SDS011;7114;51.100;13.998;2022-07-03T11:43:12;12.27;;;11.35;;
14076;SDS011;7114;51.100;13.998;2022-07-03T11:45:39;12.70;;;11.80;;
14076;SDS011;7114;51.100;13.998;2022-07-03T11:48:07;11.93;;;11.02;;
14076;SDS011;7114;51.100;13.998;2022-07-03T11:50:38;12.52;;;11.52;;
14076;SDS011;7114;51.100;13.998;2022-07-03T11:53:15;11.25;;;10.43;;
14076;SDS011;7114;51.100;13.998;2022-07-03T11:55:45;11.25;;;10.35;;
14076;SDS011;7114;51.100;13.998;2022-07-03T11:58:14;12.83;;;11.93;;
14076;SDS011;7114;51.100;13.998;2022-07-03T12:00:40;12.07;;;11.18;;
14076;SDS011;7114;51.100;13.998;2022-07-03T12:03:06;12.15;;;11.25;;
14076;SDS011;7114;51.100;13.998;2022-07-03T12:05:33;12.15;;;11.25;;
14076;SDS011;7114;51.100;13.998;2022-07-03T12:08:02;12.82;;;11.80;;
14076;SDS011;7114;51.100;13.998;2022-07-03T12:10:36;13.03;;;12.03;;
14076;SDS011;7114;51.100;13.998;2022-07-03T12:13:03;13.88;;;12.88;;
14076;SDS011;7114;51.100;13.998;2022-07-03T12:15:31;14.05;;;13.05;;
14076;SDS011;7114;51.100;13.998;2022-07-03T12:17:57;13.65;;;12.73;;
14076;SDS011;7114;51.100;13.998;2022-07-03T12:20:24;15.20;;;14.10;;
14076;SDS011;7114;51.100;13.998;2022-07-03T12:22:51;17.33;;;16.13;;
14076;SDS011;7114;51.100;13.998;2022-07-03T12:25:17;16.05;;;14.75;;
14076;SDS011;7114;51.100;13.998;2022-07-03T12:27:44;17.73;;;16.63;;
14076;SDS011;7114;51.100;13.998;2022-07-03T12:30:11;17.85;;;16.60;;
14076;SDS011;7114;51.100;13.998;2022-07-03T12:32:40;16.85;;;15.65;;
14076;SDS011;7114;51.100;13.998;2022-07-03T12:35:07;16.57;;;15.47;;
14076;SDS011;7114;51.100;13.998;2022-07-03T12:37:33;15.93;;;14.93;;
14076;SDS011;7114;51.100;13.998;2022-07-03T12:40:01;16.35;;;15.27;;
14076;SDS011;7114;51.100;13.998;2022-07-03T12:42:28;17.33;;;16.20;;
14076;SDS011;7114;51.100;13.998;2022-07-03T12:44:56;17.38;;;16.27;;
14076;SDS011;7114;51.100;13.998;2022-07-03T12:47:23;18.13;;;17.00;;
14076;SDS011;7114;51.100;13.998;2022-07-03T12:49:57;19.52;;;18.33;;
14076;SDS011;7114;51.100;13.998;2022-07-03T12:52:26;18.92;;;17.73;;
14076;SDS011;7114;51.100;13.998;2022-07-03T12:54:52;21.17;;;19.88;;
14076;SDS011;7114;51.100;13.998;2022-07-03T12:57:19;21.50;;;20.20;;
14076;SDS011;7114;51.100;13.998;2022-07-03T13:00:05;21.50;;;20.20;;
14076;SDS011;7114;51.100;13.998;2022-07-03T13:02:35;22.90;;;21.60;;
14076;SDS011;7114;51.100;13.998;2022-07-03T13:05:13;21.58;;;20.27;;
14076;SDS011;7114;51.100;13.998;2022-07-03T13:07:40;22.10;;;20.80;;
14076;SDS011;7114;51.100;13.998;2022-07-03T13:10:07;22.48;;;21.08;;
14076;SDS011;7114;51.100;13.998;2022-07-03T13:12:34;21.30;;;20.00;;
14076;SDS011;7114;51.100;13.998;2022-07-03T13:15:11;22.98;;;21.63;;
14076;SDS011;7114;51.100;13.998;2022-07-03T13:17:50;22.45;;;21.05;;
14076;SDS011;7114;51.100;13.998;2022-07-03T13:20:23;21.45;;;20.17;;
14076;SDS011;7114;51.100;13.998;2022-07-03T13:22:50;23.38;;;21.98;;
14076;SDS011;7114;51.100;13.998;2022-07-03T13:25:17;20.73;;;19.53;;
14076;SDS011;7114;51.100;13.998;2022-07-03T13:27:44;22.33;;;21.02;;
14076;SDS011;7114;51.100;13.998;2022-07-03T13:30:10;22.58;;;21.13;;
14076;SDS011;7114;51.100;13.998;2022-07-03T13:32:37;19.05;;;17.85;;
14076;SDS011;7114;51.100;13.998;2022-07-03T13:35:04;15.80;;;14.70;;
14076;SDS011;7114;51.100;13.998;2022-07-03T13:37:33;16.33;;;15.23;;
14076;SDS011;7114;51.100;13.998;2022-07-03T13:40:00;12.70;;;11.80;;
14076;SDS011;7114;51.100;13.998;2022-07-03T13:42:26;11.35;;;10.45;;
14076;SDS011;7114;51.100;13.998;2022-07-03T13:44:53;10.45;;;9.65;;
14076;SDS011;7114;51.100;13.998;2022-07-03T13:47:19;10.60;;;9.80;;
14076;SDS011;7114;51.100;13.998;2022-07-03T13:49:46;11.40;;;10.50;;
14076;SDS011;7114;51.100;13.998;2022-07-03T13:52:12;11.98;;;11.07;;
14076;SDS011;7114;51.100;13.998;2022-07-03T13:54:39;11.63;;;10.73;;
14076;SDS011;7114;51.100;13.998;2022-07-03T13:57:06;12.27;;;11.38;;
14076;SDS011;7114;51.100;13.998;2022-07-03T13:59:32;12.55;;;11.55;;
14076;SDS011;7114;51.100;13.998;2022-07-03T14:01:58;13.70;;;12.70;;
14076;SDS011;7114;51.100;13.998;2022-07-03T14:04:25;14.70;;;13.60;;
14076;SDS011;7114;51.100;13.998;2022-07-03T14:06:52;14.13;;;13.13;;
14076;SDS011;7114;51.100;13.998;2022-07-03T14:09:18;14.38;;;13.38;;
14076;SDS011;7114;51.100;13.998;2022-07-03T14:11:46;14.77;;;13.77;;
14076;SDS011;7114;51.100;13.998;2022-07-03T14:14:12;14.57;;;13.57;;
14076;SDS011;7114;51.100;13.998;2022-07-03T14:16:39;13.23;;;12.30;;
14076;SDS011;7114;51.100;13.998;2022-07-03T14:19:05;12.10;;;11.20;;
14076;SDS011;7114;51.100;13.998;2022-07-03T14:21:32;11.65;;;10.75;;
14076;SDS011;7114;51.100;13.998;2022-07-03T14:23:58;9.52;;;8.73;;
14076;SDS011;7114;51.100;13.998;2022-07-03T14:26:24;9.40;;;8.60;;
14076;SDS011;7114;51.100;13.998;2022-07-03T14:29:06;9.05;;;8.35;;
14076;SDS011;7114;51.100;13.998;2022-07-03T14:31:53;8.73;;;7.93;;
14076;SDS011;7114;51.100;13.998;2022-07-03T14:34:37;8.98;;;8.07;;
14076;SDS011;7114;51.100;13.998;2022-07-03T14:37:03;8.80;;;8.00;;
14076;SDS011;7114;51.100;13.998;2022-07-03T14:39:30;7.50;;;6.80;;
14076;SDS011;7114;51.100;13.998;2022-07-03T14:41:56;7.45;;;6.75;;
14076;SDS011;7114;51.100;13.998;2022-07-03T14:44:24;7.45;;;6.68;;
14076;SDS011;7114;51.100;13.998;2022-07-03T14:46:51;7.30;;;6.60;;
14076;SDS011;7114;51.100;13.998;2022-07-03T14:49:17;7.75;;;6.93;;
14076;SDS011;7114;51.100;13.998;2022-07-03T14:51:43;8.43;;;7.63;;
14076;SDS011;7114;51.100;13.998;2022-07-03T14:54:10;8.73;;;7.75;;
14076;SDS011;7114;51.100;13.998;2022-07-03T14:56:37;8.32;;;7.53;;
14076;SDS011;7114;51.100;13.998;2022-07-03T14:59:07;8.30;;;7.50;;